Time;durP1;ratioP1;P1;durP2;ratioP2;P2;SDS_P1;SDS_P2;PMS_P1;PMS_P2;Temp;Humidity;BMP_temperature;BMP_pressure;BME280_temperature;BME280_humidity;BME280_pressure;Samples;Min_cycle;Max_cycle;Signal;HPM_P1;HPM_P2
2022/08/03 00:00:26;;;;;;;;;;;;;;;18.50;57.36;99254.44;5155570;27;19927;-81
2022/08/03 00:02:56;;;;;;;;;;;;;;;18.55;57.24;99261.75;5154634;27;19972;-80
2022/08/03 00:05:23;;;;;;;;;;;;;;;18.59;57.18;99260.91;5155247;27;20297;-80
2022/08/03 00:07:50;;;;;;;;;;;;;;;18.59;57.08;99263.63;5154735;27;19934;-81
2022/08/03 00:10:18;;;;;;;;;;;;;;;18.61;56.74;99263.34;5154888;27;19938;-79
2022/08/03 00:12:45;;;;;;;;;;;;;;;18.63;56.88;99270.16;5154808;27;19948;-82
2022/08/03 00:15:12;;;;;;;;;;;;;;;18.60;57.10;99262.50;5155197;27;20368;-81
2022/08/03 00:17:43;;;;;;;;;;;;;;;18.57;57.30;99265.84;5154525;27;20384;-81
2022/08/03 00:20:22;;;;;;;;;;;;;;;18.54;57.27;99260.97;5154708;27;19938;-81
2022/08/03 00:22:49;;;;;;;;;;;;;;;18.49;57.36;99258.28;5154417;27;19930;-81
2022/08/03 00:25:16;;;;;;;;;;;;;;;18.42;57.42;99266.00;5154775;27;20021;-81
2022/08/03 00:27:43;;;;;;;;;;;;;;;18.39;57.77;99269.31;5135750;27;19938;-82
2022/08/03 00:30:10;;;;;;;;;;;;;;;18.33;57.70;99259.53;5154729;27;20362;-81
2022/08/03 00:32:37;;;;;;;;;;;;;;;18.29;57.98;99263.97;5154333;27;19927;-81
2022/08/03 00:35:10;;;;;;;;;;;;;;;18.26;58.05;99264.56;5154546;27;19927;-80
2022/08/03 00:37:58;;;;;;;;;;;;;;;18.25;58.13;99260.19;5153157;27;19972;-82
2022/08/03 00:40:25;;;;;;;;;;;;;;;18.21;58.31;99259.16;5133698;27;19928;-82
2022/08/03 00:43:01;;;;;;;;;;;;;;;18.21;58.63;99251.75;5133233;27;19927;-81
2022/08/03 00:45:35;;;;;;;;;;;;;;;18.21;58.74;99256.41;5114663;27;20135;-81
2022/08/03 00:48:03;;;;;;;;;;;;;;;18.17;58.84;99256.97;5115232;27;19927;-81
2022/08/03 00:50:31;;;;;;;;;;;;;;;18.16;58.60;99263.53;5133684;27;20045;-81
2022/08/03 00:52:58;;;;;;;;;;;;;;;18.17;58.79;99258.88;5115291;27;19932;-80
2022/08/03 00:55:25;;;;;;;;;;;;;;;18.15;59.04;99255.63;5115380;27;19972;-80
2022/08/03 00:57:52;;;;;;;;;;;;;;;18.10;59.22;99258.41;5132854;27;19934;-81
2022/08/03 01:00:20;;;;;;;;;;;;;;;18.07;59.25;99254.34;5132677;27;20393;-81
2022/08/03 01:02:48;;;;;;;;;;;;;;;18.05;59.02;99253.00;5133145;27;20347;-81
2022/08/03 01:05:15;;;;;;;;;;;;;;;18.01;59.43;99255.50;5132882;27;19935;-80
2022/08/03 01:07:55;;;;;;;;;;;;;;;18.01;59.53;99255.50;5096439;27;20468;-81
2022/08/03 01:10:24;;;;;;;;;;;;;;;17.98;59.56;99250.63;5132701;27;19928;-81
2022/08/03 01:12:54;;;;;;;;;;;;;;;17.97;59.49;99251.69;5114803;27;20385;-80
2022/08/03 01:15:21;;;;;;;;;;;;;;;17.96;59.55;99253.63;5116785;27;20022;-80
2022/08/03 01:17:50;;;;;;;;;;;;;;;17.94;59.83;99253.09;5140567;27;20394;-79
2022/08/03 01:20:17;;;;;;;;;;;;;;;17.94;59.81;99249.56;5132978;27;19931;-80
2022/08/03 01:22:48;;;;;;;;;;;;;;;17.92;60.06;99249.81;5114943;27;20021;-80
2022/08/03 01:25:21;;;;;;;;;;;;;;;17.89;59.96;99255.06;5133066;27;19927;-80
2022/08/03 01:28:01;;;;;;;;;;;;;;;17.87;60.18;99254.53;5133012;27;20000;-80
2022/08/03 01:30:29;;;;;;;;;;;;;;;17.89;60.27;99244.94;5132706;27;20358;-82
2022/08/03 01:32:59;;;;;;;;;;;;;;;17.89;60.38;99250.41;5114542;27;19932;-80
2022/08/03 01:35:30;;;;;;;;;;;;;;;17.90;60.36;99246.59;5098227;28;19932;-80
2022/08/03 01:38:05;;;;;;;;;;;;;;;17.92;60.22;99251.75;5132579;27;19934;-80
2022/08/03 01:40:32;;;;;;;;;;;;;;;17.90;60.23;99249.31;5098094;28;19927;-81
2022/08/03 01:42:59;;;;;;;;;;;;;;;17.89;60.20;99257.78;5097494;28;19931;-81
2022/08/03 01:45:27;;;;;;;;;;;;;;;17.90;60.64;99251.22;5114072;28;19933;-81
2022/08/03 01:47:59;;;;;;;;;;;;;;;17.89;60.57;99242.22;5113948;28;19980;-81
2022/08/03 01:50:27;;;;;;;;;;;;;;;17.90;60.81;99253.94;5132707;28;19928;-79
2022/08/03 01:52:54;;;;;;;;;;;;;;;17.90;60.78;99257.50;5114021;28;20046;-78
2022/08/03 01:55:21;;;;;;;;;;;;;;;17.91;60.77;99255.59;5114594;28;19989;-78
2022/08/03 01:57:48;;;;;;;;;;;;;;;17.93;60.74;99253.41;5132076;28;20437;-81
2022/08/03 02:00:31;;;;;;;;;;;;;;;17.93;61.07;99259.66;5116689;28;19927;-80
2022/08/03 02:02:58;;;;;;;;;;;;;;;17.94;60.95;99255.00;5132024;28;19966;-79
2022/08/03 02:05:25;;;;;;;;;;;;;;;17.96;61.18;99261.00;5113847;28;19928;-82
2022/08/03 02:07:52;;;;;;;;;;;;;;;17.96;61.16;99275.47;5131881;28;20351;-80
2022/08/03 02:10:19;;;;;;;;;;;;;;;18.00;61.08;99263.97;5114002;28;19927;-79
2022/08/03 02:13:02;;;;;;;;;;;;;;;17.97;61.02;99262.63;5133978;27;19980;-81
2022/08/03 02:15:29;;;;;;;;;;;;;;;18.04;61.03;99265.84;5136233;27;19932;-80
2022/08/03 02:17:56;;;;;;;;;;;;;;;18.07;60.91;99259.78;5136060;27;19933;-80
2022/08/03 02:20:23;;;;;;;;;;;;;;;18.10;60.91;99264.69;5135923;27;19927;-81
2022/08/03 02:22:51;;;;;;;;;;;;;;;18.11;60.98;99269.06;5136085;27;20007;-80
2022/08/03 02:25:17;;;;;;;;;;;;;;;18.15;60.95;99267.38;5135869;27;19927;-79
2022/08/03 02:27:55;;;;;;;;;;;;;;;18.18;61.07;99271.47;5101077;27;19932;-81
2022/08/03 02:30:24;;;;;;;;;;;;;;;18.21;60.78;99265.41;5083993;27;19927;-81
2022/08/03 02:32:53;;;;;;;;;;;;;;;18.23;60.82;99273.31;5117466;27;20673;-80
2022/08/03 02:35:22;;;;;;;;;;;;;;;18.26;60.78;99273.56;5117767;27;20412;-80
2022/08/03 02:37:51;;;;;;;;;;;;;;;18.27;60.75;99279.81;5117595;27;19927;-80
2022/08/03 02:40:18;;;;;;;;;;;;;;;18.25;60.97;99274.63;5117631;27;19973;-81
2022/08/03 02:42:45;;;;;;;;;;;;;;;18.28;60.79;99286.91;5135553;27;19927;-79
2022/08/03 02:45:13;;;;;;;;;;;;;;;18.27;60.87;99277.91;5117875;27;19928;-80
2022/08/03 02:47:40;;;;;;;;;;;;;;;18.31;60.87;99280.91;5135334;27;19969;-81
2022/08/03 02:50:20;;;;;;;;;;;;;;;18.34;60.69;99278.38;5119274;27;19927;-80
2022/08/03 02:52:48;;;;;;;;;;;;;;;18.39;60.60;99283.78;5117592;27;19938;-80
2022/08/03 02:55:14;;;;;;;;;;;;;;;18.39;60.66;99282.97;5135568;27;19927;-79
2022/08/03 02:57:41;;;;;;;;;;;;;;;18.40;60.76;99288.16;5117366;27;19970;-80
2022/08/03 03:00:08;;;;;;;;;;;;;;;18.43;60.66;99275.81;5117088;27;19936;-80
2022/08/03 03:02:35;;;;;;;;;;;;;;;18.52;60.54;99284.22;5117066;27;19989;-80
2022/08/03 03:05:02;;;;;;;;;;;;;;;18.59;60.53;99287.41;5116966;27;20378;-80
2022/08/03 03:07:49;;;;;;;;;;;;;;;18.62;60.51;99282.19;5116762;27;20402;-80
2022/08/03 03:10:19;;;;;;;;;;;;;;;18.62;60.71;99284.09;5117568;27;19927;-80
2022/08/03 03:12:46;;;;;;;;;;;;;;;18.60;60.66;99283.56;5135251;27;20021;-80
2022/08/03 03:15:23;;;;;;;;;;;;;;;18.62;60.66;99275.91;5118441;27;19927;-80
2022/08/03 03:17:50;;;;;;;;;;;;;;;18.67;60.62;99283.22;5116672;27;19972;-80
2022/08/03 03:20:19;;;;;;;;;;;;;;;18.74;60.90;99286.44;5134899;27;19959;-81
2022/08/03 03:22:59;;;;;;;;;;;;;;;18.77;60.83;99289.41;5102584;27;19928;-80
2022/08/03 03:25:30;;;;;;;;;;;;;;;18.79;60.93;99291.88;5116738;27;19927;-81
2022/08/03 03:27:57;;;;;;;;;;;;;;;18.85;60.69;99296.16;5134743;27;19927;-81
2022/08/03 03:30:24;;;;;;;;;;;;;;;18.94;60.60;99299.88;5116378;27;20620;-81
2022/08/03 03:32:52;;;;;;;;;;;;;;;19.02;60.52;99299.22;5134457;27;20339;-81
2022/08/03 03:35:19;;;;;;;;;;;;;;;19.09;60.10;99300.78;5134930;27;19976;-80
2022/08/03 03:37:46;;;;;;;;;;;;;;;19.15;59.91;99299.63;5116426;27;19954;-81
2022/08/03 03:40:13;;;;;;;;;;;;;;;19.14;59.90;99308.91;5134641;27;20374;-81
2022/08/03 03:42:40;;;;;;;;;;;;;;;19.22;59.96;99306.34;5134126;27;20026;-81
2022/08/03 03:45:07;;;;;;;;;;;;;;;19.35;59.81;99307.56;5134561;27;20405;-80
2022/08/03 03:47:34;;;;;;;;;;;;;;;19.49;59.20;99308.41;5099141;27;19927;-81
2022/08/03 03:50:04;;;;;;;;;;;;;;;19.55;59.39;99308.38;5116330;27;19966;-81
2022/08/03 03:52:32;;;;;;;;;;;;;;;19.63;59.19;99310.44;5134450;27;19967;-81
2022/08/03 03:54:58;;;;;;;;;;;;;;;19.72;58.88;99308.66;5133932;27;19931;-81
2022/08/03 03:57:29;;;;;;;;;;;;;;;19.83;58.75;99309.34;5134542;27;20058;-81
2022/08/03 03:59:56;;;;;;;;;;;;;;;19.97;58.45;99309.38;5133832;27;20386;-81
2022/08/03 04:02:23;;;;;;;;;;;;;;;20.06;58.16;99313.88;5133967;27;19934;-81
2022/08/03 04:13:14;;;;;;;;;;;;;;;20.40;57.79;99325.63;5118091;27;19978;-80
2022/08/03 04:15:41;;;;;;;;;;;;;;;20.47;57.81;99318.63;5133489;27;19976;-82
2022/08/03 04:18:08;;;;;;;;;;;;;;;20.49;57.65;99326.56;5133739;27;19933;-83
2022/08/03 04:20:36;;;;;;;;;;;;;;;20.48;57.81;99322.19;5115884;27;19979;-80
2022/08/03 04:23:03;;;;;;;;;;;;;;;20.51;57.70;99324.34;5115539;27;20357;-80
2022/08/03 04:25:39;;;;;;;;;;;;;;;20.65;57.52;99329.88;5116796;27;19939;-80
2022/08/03 04:28:06;;;;;;;;;;;;;;;20.81;57.10;99328.44;5133428;27;20320;-81
2022/08/03 04:30:53;;;;;;;;;;;;;;;20.98;56.96;99327.84;5097824;27;20297;-80
2022/08/03 04:33:20;;;;;;;;;;;;;;;21.11;56.46;99326.19;5095046;27;19984;-80
2022/08/03 04:35:51;;;;;;;;;;;;;;;21.18;56.30;99321.91;5128721;27;20273;-80
2022/08/03 04:38:28;;;;;;;;;;;;;;;21.24;56.32;99324.56;5129704;27;19928;-80
2022/08/03 04:40:56;;;;;;;;;;;;;;;21.30;56.11;99326.91;5111128;27;20022;-80
2022/08/03 04:43:23;;;;;;;;;;;;;;;21.32;56.03;99316.44;5111131;27;20361;-80
2022/08/03 04:45:50;;;;;;;;;;;;;;;21.43;56.14;99319.78;5128487;27;20342;-82
2022/08/03 04:48:17;;;;;;;;;;;;;;;21.52;55.67;99320.69;5115159;27;19927;-80
2022/08/03 04:50:44;;;;;;;;;;;;;;;21.63;55.42;99321.25;5097923;27;20301;-82
2022/08/03 04:53:11;;;;;;;;;;;;;;;21.73;55.44;99320.22;5114728;27;19927;-81
2022/08/03 04:55:38;;;;;;;;;;;;;;;21.73;55.04;99320.22;5132536;27;19990;-81
2022/08/03 04:58:05;;;;;;;;;;;;;;;21.84;55.06;99327.88;5132299;27;19927;-81
2022/08/03 05:00:32;;;;;;;;;;;;;;;22.00;54.91;99320.09;5132218;27;19972;-82
2022/08/03 05:02:59;;;;;;;;;;;;;;;22.07;54.61;99316.88;5135249;27;19931;-82
2022/08/03 05:05:26;;;;;;;;;;;;;;;22.10;54.48;99323.69;5142318;27;19931;-80
2022/08/03 05:08:13;;;;;;;;;;;;;;;22.18;54.17;99309.19;5153598;27;20326;-82
2022/08/03 05:10:40;;;;;;;;;;;;;;;22.30;53.94;99323.22;5150222;27;20491;-80
2022/08/03 05:13:10;;;;;;;;;;;;;;;22.38;53.46;99324.38;5139853;27;20382;-81
2022/08/03 05:15:38;;;;;;;;;;;;;;;22.38;52.86;99318.88;5145219;27;20033;-81
2022/08/03 05:18:09;;;;;;;;;;;;;;;22.50;52.70;99319.91;5144135;27;19927;-80
2022/08/03 05:20:39;;;;;;;;;;;;;;;22.60;52.40;99320.78;5143176;27;19938;-80
2022/08/03 05:23:06;;;;;;;;;;;;;;;22.60;52.58;99327.09;5137772;27;19939;-81
2022/08/03 05:25:35;;;;;;;;;;;;;;;22.48;52.82;99330.44;5102191;27;19927;-81
2022/08/03 05:28:05;;;;;;;;;;;;;;;22.43;53.20;99333.34;5138646;27;19927;-81
2022/08/03 05:30:32;;;;;;;;;;;;;;;22.44;53.11;99325.88;5142329;27;20396;-81
2022/08/03 05:33:12;;;;;;;;;;;;;;;22.53;53.13;99323.16;5138876;27;20026;-82
2022/08/03 05:35:39;;;;;;;;;;;;;;;22.57;52.97;99332.41;5142014;27;19975;-81
2022/08/03 05:38:26;;;;;;;;;;;;;;;22.67;53.06;99334.91;5122094;27;19928;-82
2022/08/03 05:41:02;;;;;;;;;;;;;;;22.87;52.40;99334.31;5141021;27;19928;-81
2022/08/03 05:43:49;;;;;;;;;;;;;;;23.11;52.01;99330.38;5117257;28;19927;-81
2022/08/03 05:46:16;;;;;;;;;;;;;;;23.27;52.05;99322.47;5132828;27;19927;-83
2022/08/03 05:48:43;;;;;;;;;;;;;;;23.41;52.00;99336.13;5134081;27;19967;-83
2022/08/03 05:51:14;;;;;;;;;;;;;;;23.51;51.92;99335.81;5127451;27;19928;-81
2022/08/03 05:53:43;;;;;;;;;;;;;;;23.59;52.09;99332.25;5146871;27;20029;-80
2022/08/03 05:56:12;;;;;;;;;;;;;;;23.69;52.13;99326.41;5137744;27;20453;-81
2022/08/03 05:58:48;;;;;;;;;;;;;;;23.77;51.87;99331.13;5120415;27;20472;-81
2022/08/03 06:01:16;;;;;;;;;;;;;;;23.85;51.61;99326.78;5112246;27;20393;-81
2022/08/03 06:03:46;;;;;;;;;;;;;;;23.90;51.36;99334.06;5135238;27;19935;-83
2022/08/03 06:06:14;;;;;;;;;;;;;;;23.83;51.62;99328.25;5100388;27;20383;-82
2022/08/03 06:08:42;;;;;;;;;;;;;;;23.91;50.89;99330.19;5135415;27;20026;-81
2022/08/03 06:11:09;;;;;;;;;;;;;;;23.98;50.78;99327.75;5134497;27;20050;-81
2022/08/03 06:13:36;;;;;;;;;;;;;;;24.15;50.34;99329.66;5146561;27;19927;-81
2022/08/03 06:16:03;;;;;;;;;;;;;;;24.35;50.47;99328.16;5117069;27;19934;-82
2022/08/03 06:18:30;;;;;;;;;;;;;;;24.54;49.85;99320.34;5135460;27;20420;-80
2022/08/03 06:20:57;;;;;;;;;;;;;;;24.67;49.30;99328.75;5116611;27;19927;-83
2022/08/03 06:23:42;;;;;;;;;;;;;;;24.76;48.97;99330.31;5116567;27;19927;-82
2022/08/03 06:26:22;;;;;;;;;;;;;;;24.85;49.00;99330.28;5135481;27;19927;-82
2022/08/03 06:28:49;;;;;;;;;;;;;;;24.92;47.82;99329.78;5130230;27;19927;-80
2022/08/03 06:31:22;;;;;;;;;;;;;;;25.08;47.28;99333.56;5138705;27;19983;-80
2022/08/03 06:33:50;;;;;;;;;;;;;;;25.23;46.11;99335.78;5127622;27;19932;-81
2022/08/03 06:36:37;;;;;;;;;;;;;;;25.57;45.22;99328.41;5120495;27;20023;-82
2022/08/03 06:39:03;;;;;;;;;;;;;;;25.81;44.58;99332.47;5138375;27;20014;-82
2022/08/03 06:41:30;;;;;;;;;;;;;;;25.81;44.16;99338.00;5138473;27;19931;-81
2022/08/03 06:44:10;;;;;;;;;;;;;;;25.86;44.25;99338.63;5122550;27;19927;-82
2022/08/03 06:46:38;;;;;;;;;;;;;;;25.82;43.64;99340.41;5138566;27;19935;-81
2022/08/03 06:49:08;;;;;;;;;;;;;;;25.82;43.41;99342.38;5138027;27;20313;-81
2022/08/03 06:51:51;;;;;;;;;;;;;;;25.92;43.90;99344.75;5133468;27;19938;-80
2022/08/03 06:54:32;;;;;;;;;;;;;;;26.11;43.89;99339.53;5124361;27;19927;-80
2022/08/03 06:57:00;;;;;;;;;;;;;;;26.35;43.56;99340.75;5138289;27;20398;-82
2022/08/03 06:59:27;;;;;;;;;;;;;;;26.53;43.48;99336.66;5116876;27;20420;-82
2022/08/03 07:02:14;;;;;;;;;;;;;;;26.53;43.03;99331.13;5135121;27;19934;-81
2022/08/03 07:04:46;;;;;;;;;;;;;;;26.52;42.43;99337.00;5116658;27;19927;-81
2022/08/03 07:07:13;;;;;;;;;;;;;;;26.69;42.32;99336.03;5099755;27;19934;-81
2022/08/03 07:09:39;;;;;;;;;;;;;;;26.89;41.43;99337.06;5135105;27;19978;-81
2022/08/03 07:12:10;;;;;;;;;;;;;;;27.12;40.90;99346.53;5116682;27;19935;-81
2022/08/03 07:14:38;;;;;;;;;;;;;;;27.14;40.91;99346.19;5135091;27;19927;-81
2022/08/03 07:17:05;;;;;;;;;;;;;;;26.99;40.27;99342.13;5134766;27;19931;-81
2022/08/03 07:19:37;;;;;;;;;;;;;;;26.82;40.87;99347.91;5134985;27;20349;-81
2022/08/03 07:22:05;;;;;;;;;;;;;;;26.86;40.83;99344.09;5134431;27;20332;-81
2022/08/03 07:24:32;;;;;;;;;;;;;;;26.96;40.50;99343.63;5134713;27;20022;-81
2022/08/03 07:26:58;;;;;;;;;;;;;;;27.14;40.30;99348.94;5116424;27;19982;-81
2022/08/03 07:29:25;;;;;;;;;;;;;;;27.25;40.30;99346.56;5116316;27;20025;-81
2022/08/03 07:31:52;;;;;;;;;;;;;;;27.45;39.56;99351.97;5133929;27;19934;-81
2022/08/03 07:34:19;;;;;;;;;;;;;;;27.60;39.90;99352.38;5139243;27;19988;-81
2022/08/03 07:36:46;;;;;;;;;;;;;;;27.68;39.13;99351.44;5129470;27;20298;-80
2022/08/03 07:39:13;;;;;;;;;;;;;;;27.77;39.04;99352.09;5134478;27;19935;-80
2022/08/03 07:41:44;;;;;;;;;;;;;;;27.77;38.11;99354.88;5134006;27;19970;-80
2022/08/03 07:44:11;;;;;;;;;;;;;;;27.67;37.80;99353.44;5098562;27;20023;-81
2022/08/03 07:46:38;;;;;;;;;;;;;;;27.48;37.74;99353.22;5134161;27;19962;-81
2022/08/03 07:49:05;;;;;;;;;;;;;;;27.53;37.33;99352.97;5134063;27;20342;-81
2022/08/03 07:51:32;;;;;;;;;;;;;;;27.36;37.68;99356.00;5134159;27;19928;-80
2022/08/03 07:53:59;;;;;;;;;;;;;;;27.36;37.65;99361.56;5133944;27;19927;-80
2022/08/03 07:56:27;;;;;;;;;;;;;;;27.36;38.31;99364.31;5115499;27;19934;-81
2022/08/03 07:58:54;;;;;;;;;;;;;;;27.47;38.13;99367.41;5115073;27;20294;-81
2022/08/03 08:01:21;;;;;;;;;;;;;;;27.77;37.62;99365.16;5133861;27;20387;-82
2022/08/03 08:03:48;;;;;;;;;;;;;;;28.32;37.13;99363.59;5115779;27;19927;-81
2022/08/03 08:06:19;;;;;;;;;;;;;;;28.90;36.58;99372.28;5134203;27;19927;-81
2022/08/03 08:08:46;;;;;;;;;;;;;;;29.39;35.31;99365.53;5115183;27;19927;-82
2022/08/03 08:11:13;;;;;;;;;;;;;;;29.51;35.09;99364.63;5097743;27;20030;-82
2022/08/03 08:13:40;;;;;;;;;;;;;;;29.61;34.96;99366.84;5131171;27;19938;-81
2022/08/03 08:16:07;;;;;;;;;;;;;;;29.81;34.94;99373.25;4433035;27;10000480;-82
2022/08/03 08:18:35;;;;;;;;;;;;;;;29.99;34.62;99366.09;5154204;27;19979;-80
2022/08/03 08:21:02;;;;;;;;;;;;;;;30.13;34.44;99368.38;5154221;27;19934;-80
2022/08/03 08:23:29;;;;;;;;;;;;;;;30.17;34.42;99368.44;5154059;27;20459;-81
2022/08/03 08:26:14;;;;;;;;;;;;;;;29.44;35.04;99373.59;5135342;27;20445;-82
2022/08/03 08:28:44;;;;;;;;;;;;;;;29.64;34.85;99374.44;5135566;27;19927;-81
2022/08/03 08:31:18;;;;;;;;;;;;;;;29.43;35.00;99372.00;5154100;27;19926;-81
2022/08/03 08:33:45;;;;;;;;;;;;;;;29.94;34.15;99368.38;5154324;27;19934;-82
2022/08/03 08:36:33;;;;;;;;;;;;;;;30.07;33.65;99371.81;5120976;27;20824;-82
2022/08/03 08:39:00;;;;;;;;;;;;;;;30.40;33.00;99369.31;5153742;27;20038;-81
2022/08/03 08:41:33;;;;;;;;;;;;;;;30.17;33.50;99376.78;5153898;27;20029;-81
2022/08/03 08:44:00;;;;;;;;;;;;;;;29.60;34.46;99379.13;5118929;27;19931;-81
2022/08/03 08:46:32;;;;;;;;;;;;;;;29.67;34.65;99375.72;5153850;27;20081;-81
2022/08/03 08:49:00;;;;;;;;;;;;;;;30.14;34.01;99367.19;5135059;27;19931;-81
2022/08/03 08:51:32;;;;;;;;;;;;;;;30.93;33.08;99368.69;5136241;27;19933;-81
2022/08/03 08:54:20;;;;;;;;;;;;;;;31.43;32.06;99365.91;5135164;27;20007;-82
2022/08/03 08:56:48;;;;;;;;;;;;;;;31.81;31.89;99372.41;5153506;27;19927;-81
2022/08/03 08:59:15;;;;;;;;;;;;;;;31.66;31.43;99371.41;5135624;27;19926;-81
2022/08/03 09:02:15;;;;;;;;;;;;;;;30.45;32.35;99366.22;5057053;28;19997;-81
2022/08/03 09:04:49;;;;;;;;;;;;;;;29.95;33.02;99381.09;5068964;28;19936;-81
2022/08/03 09:07:16;;;;;;;;;;;;;;;30.26;33.04;99382.13;5052506;28;19935;-81
2022/08/03 09:09:55;;;;;;;;;;;;;;;30.61;33.01;99374.47;5081705;28;19928;-81
2022/08/03 09:12:42;;;;;;;;;;;;;;;30.48;32.65;99386.94;5049395;28;19972;-82
2022/08/03 09:15:20;;;;;;;;;;;;;;;30.09;32.79;99381.41;5049233;28;19929;-82
2022/08/03 09:17:55;;;;;;;;;;;;;;;30.01;33.31;99379.66;5067796;28;19974;-81
2022/08/03 09:20:22;;;;;;;;;;;;;;;30.15;32.76;99379.91;5062748;28;20010;-81
2022/08/03 09:22:55;;;;;;;;;;;;;;;30.39;32.53;99380.81;5067480;28;19928;-83
2022/08/03 09:25:36;;;;;;;;;;;;;;;31.44;31.27;99373.88;5054404;28;19928;-82
2022/08/03 09:28:03;;;;;;;;;;;;;;;31.63;30.86;99383.31;5061833;28;19928;-81
2022/08/03 09:30:30;;;;;;;;;;;;;;;31.56;30.82;99383.22;5042141;28;20399;-81
2022/08/03 09:33:01;;;;;;;;;;;;;;;31.38;30.83;99385.72;5041974;28;19932;-81
2022/08/03 09:35:29;;;;;;;;;;;;;;;31.47;30.70;99391.84;5064513;28;19928;-82
2022/08/03 09:38:23;;;;;;;;;;;;;;;32.41;29.48;99380.75;5055395;28;19948;-81
2022/08/03 09:40:50;;;;;;;;;;;;;;;33.58;28.13;99376.59;5048010;28;19970;-82
2022/08/03 09:43:24;;;;;;;;;;;;;;;34.40;27.21;99376.94;5054927;28;20388;-81
2022/08/03 09:45:51;;;;;;;;;;;;;;;34.89;26.41;99383.88;5059925;28;19932;-81
2022/08/03 09:48:23;;;;;;;;;;;;;;;35.09;26.10;99375.06;5039948;28;19975;-82
2022/08/03 09:50:53;;;;;;;;;;;;;;;34.64;26.60;99377.41;5028462;28;20027;-81
2022/08/03 09:53:45;;;;;;;;;;;;;;;33.50;27.45;99381.31;5122968;27;20399;-82
2022/08/03 09:56:36;;;;;;;;;;;;;;;33.27;27.80;99375.94;5140135;27;19942;-81
2022/08/03 09:59:03;;;;;;;;;;;;;;;34.08;27.34;99377.66;5116314;28;20037;-81
2022/08/03 10:01:33;;;;;;;;;;;;;;;34.48;26.76;99377.75;5120609;28;20426;-81
2022/08/03 10:04:01;;;;;;;;;;;;;;;34.99;26.22;99373.03;5110134;28;20347;-81
2022/08/03 10:06:30;;;;;;;;;;;;;;;35.33;25.71;99370.66;5130304;27;19935;-82
2022/08/03 10:09:06;;;;;;;;;;;;;;;35.58;25.51;99376.22;5109997;28;19984;-82
2022/08/03 10:11:37;;;;;;;;;;;;;;;35.79;25.03;99383.78;5127322;28;19934;-82
2022/08/03 10:14:08;;;;;;;;;;;;;;;35.90;25.03;99373.31;5115741;27;19927;-81
2022/08/03 10:16:39;;;;;;;;;;;;;;;35.73;24.67;99383.41;5106685;27;19933;-81
2022/08/03 10:19:09;;;;;;;;;;;;;;;35.78;24.95;99371.78;5135169;27;19931;-80
2022/08/03 10:21:38;;;;;;;;;;;;;;;35.94;24.59;99384.53;5113738;28;19931;-81
2022/08/03 10:24:06;;;;;;;;;;;;;;;35.67;24.63;99378.59;5135677;27;20235;-81
2022/08/03 10:26:38;;;;;;;;;;;;;;;35.75;24.83;99381.00;5148717;27;19927;-82
2022/08/03 10:29:23;;;;;;;;;;;;;;;35.54;24.92;99383.81;5142497;27;19933;-81
2022/08/03 10:31:51;;;;;;;;;;;;;;;35.76;25.05;99373.38;5109104;27;19937;-81
2022/08/03 10:34:28;;;;;;;;;;;;;;;36.20;24.32;99372.81;5133762;27;20396;-80
2022/08/03 10:36:56;;;;;;;;;;;;;;;36.36;24.44;99379.94;5130748;27;20446;-80
2022/08/03 10:39:23;;;;;;;;;;;;;;;35.96;24.43;99370.91;5107077;27;19931;-81
2022/08/03 10:41:50;;;;;;;;;;;;;;;36.26;23.95;99372.38;5137625;27;19927;-82
2022/08/03 10:44:19;;;;;;;;;;;;;;;36.46;23.55;99384.69;5135472;27;20378;-81
2022/08/03 10:46:47;;;;;;;;;;;;;;;36.79;23.35;99385.31;5143514;27;20029;-81
2022/08/03 10:49:14;;;;;;;;;;;;;;;36.92;22.98;99382.78;5129910;27;20038;-80
2022/08/03 10:52:01;;;;;;;;;;;;;;;36.23;23.67;99386.06;5116619;27;19938;-81
2022/08/03 10:57:47;;;;;;;;;;;;;;;36.41;23.42;99387.94;5142924;27;19927;-81
2022/08/03 11:00:18;;;;;;;;;;;;;;;35.51;24.62;99393.06;5144168;27;20451;-81
2022/08/03 11:03:05;;;;;;;;;;;;;;;36.52;23.84;99391.50;5118962;27;19928;-81
2022/08/03 11:05:47;;;;;;;;;;;;;;;36.83;23.95;99391.72;5057533;28;19928;-82
2022/08/03 11:08:22;;;;;;;;;;;;;;;37.89;22.77;99389.13;5064808;28;20019;-80
2022/08/03 11:11:22;;;;;;;;;;;;;;;38.14;21.87;99394.47;5067262;28;19972;-80
2022/08/03 11:13:56;;;;;;;;;;;;;;;38.25;21.67;99399.16;5071272;28;19928;-80
2022/08/03 11:16:23;;;;;;;;;;;;;;;39.26;20.96;99393.63;5044979;28;19928;-81
2022/08/03 11:19:04;;;;;;;;;;;;;;;39.51;20.92;99390.38;5039691;28;19933;-81
2022/08/03 11:21:50;;;;;;;;;;;;;;;38.63;21.20;99397.03;5071014;28;20024;-81
2022/08/03 11:24:35;;;;;;;;;;;;;;;38.66;20.75;99396.19;5069423;28;19928;-80
2022/08/03 11:27:14;;;;;;;;;;;;;;;38.59;21.39;99387.81;5065422;28;19935;-79
2022/08/03 11:30:00;;;;;;;;;;;;;;;38.77;21.61;99391.19;5059900;28;19936;-80
2022/08/03 11:32:49;;;;;;;;;;;;;;;38.04;21.03;99383.34;5061028;28;19964;-82
2022/08/03 11:35:25;;;;;;;;;;;;;;;37.13;21.94;99390.31;5050581;28;19934;-82
2022/08/03 11:37:53;;;;;;;;;;;;;;;37.78;21.87;99393.28;5050521;28;19929;-81
2022/08/03 11:40:37;;;;;;;;;;;;;;;37.36;21.58;99390.47;5037055;28;19962;-80
2022/08/03 11:43:08;;;;;;;;;;;;;;;37.43;21.93;99390.41;5131734;27;20553;-80
2022/08/03 11:45:35;;;;;;;;;;;;;;;36.74;21.96;99382.94;5115481;27;19933;-80
2022/08/03 11:48:13;;;;;;;;;;;;;;;36.70;22.64;99382.97;5133534;27;19972;-80
2022/08/03 11:50:44;;;;;;;;;;;;;;;36.68;22.93;99379.78;5133148;27;20621;-79
2022/08/03 11:53:19;;;;;;;;;;;;;;;37.27;22.51;99385.34;5143380;27;19967;-79
2022/08/03 11:55:52;;;;;;;;;;;;;;;37.42;22.22;99391.63;5097914;27;20378;-79
2022/08/03 11:58:20;;;;;;;;;;;;;;;37.00;22.43;99387.16;5136317;27;19927;-80
2022/08/03 12:01:11;;;;;;;;;;;;;;;36.41;23.04;99396.38;5129385;27;20309;-81
2022/08/03 12:03:38;;;;;;;;;;;;;;;36.34;22.94;99385.19;5144477;27;19960;-81
2022/08/03 12:06:08;;;;;;;;;;;;;;;35.86;23.42;99380.97;5118948;27;20367;-81
2022/08/03 12:08:38;;;;;;;;;;;;;;;35.71;23.67;99385.81;5089907;27;19927;-79
2022/08/03 12:11:06;;;;;;;;;;;;;;;35.50;23.56;99388.63;5121697;27;19934;-80
2022/08/03 12:13:43;;;;;;;;;;;;;;;34.64;24.25;99383.84;5139661;27;19957;-78
2022/08/03 12:16:30;;;;;;;;;;;;;;;34.66;24.57;99375.81;5142819;27;19931;-80
2022/08/03 12:19:00;;;;;;;;;;;;;;;34.15;24.83;99382.47;5124878;27;19927;-80
2022/08/03 12:21:27;;;;;;;;;;;;;;;34.41;24.82;99380.53;5128128;27;19926;-80
2022/08/03 12:24:01;;;;;;;;;;;;;;;34.70;24.40;99373.03;5125880;27;19927;-79
2022/08/03 12:26:29;;;;;;;;;;;;;;;35.08;24.41;99376.25;5145847;27;19934;-80
2022/08/03 12:28:56;;;;;;;;;;;;;;;36.07;23.37;99380.06;5141392;27;20041;-80
2022/08/03 12:31:24;;;;;;;;;;;;;;;35.62;23.58;99371.41;5143332;27;19927;-82
2022/08/03 12:34:10;;;;;;;;;;;;;;;34.97;24.17;99367.84;5090762;27;20378;-82
2022/08/03 12:36:51;;;;;;;;;;;;;;;34.73;24.35;99369.44;5139109;27;20321;-80
2022/08/03 12:39:22;;;;;;;;;;;;;;;34.56;24.86;99367.38;5138411;27;19978;-81
2022/08/03 12:41:51;;;;;;;;;;;;;;;34.33;24.87;99371.31;5142745;27;20034;-83
2022/08/03 12:44:27;;;;;;;;;;;;;;;34.19;25.07;99372.09;5117467;27;19931;-80
2022/08/03 12:46:56;;;;;;;;;;;;;;;34.04;24.89;99374.00;5119151;27;19927;-82
2022/08/03 12:49:47;;;;;;;;;;;;;;;33.55;25.76;99382.94;5132603;27;20026;-82
2022/08/03 12:52:15;;;;;;;;;;;;;;;33.42;26.06;99383.25;5134413;27;19927;-82
2022/08/03 12:54:55;;;;;;;;;;;;;;;33.25;26.34;99375.56;5138884;27;20517;-82
2022/08/03 12:57:24;;;;;;;;;;;;;;;32.97;26.72;99376.09;5113122;27;20293;-82
2022/08/03 12:59:54;;;;;;;;;;;;;;;33.07;26.75;99375.41;5141634;27;19931;-81
2022/08/03 13:02:23;;;;;;;;;;;;;;;33.59;26.41;99372.59;5133719;27;19954;-82
2022/08/03 13:04:51;;;;;;;;;;;;;;;33.82;25.99;99378.69;5131465;27;19934;-81
2022/08/03 13:07:18;;;;;;;;;;;;;;;33.99;25.81;99377.19;5132135;27;19934;-81
2022/08/03 13:09:47;;;;;;;;;;;;;;;33.29;26.43;99372.78;5136675;27;19927;-81
2022/08/03 13:12:15;;;;;;;;;;;;;;;32.89;27.14;99377.22;5140844;27;19935;-82
2022/08/03 13:14:43;;;;;;;;;;;;;;;33.24;27.09;99380.31;5131952;27;19972;-80
2022/08/03 13:17:10;;;;;;;;;;;;;;;33.99;26.65;99374.38;5131629;27;20448;-80